Chie Maru No.10 — JD2376 — position and weather

sailwx.info

Track history (hours):
 
Tides and Currents Weather Stations Pressure Air Temp Water Temp Dewpoint Dewpoint Depression Visibility Wind Speed Wind Dir Waves Ship Positions

Chie Maru No.10

Last reported at 2015-Jul-25 08:25 UTC. Time now 2015-Jul-30 12:09 UTC.
Position N 35°58' E 140°43'.

Length 72 m; draft 4.9 m.

Type: Ship. MMSI: 431000147.

Date/timePositionNaut miles runAvg speedWind from/ knotsBaromVisibWave heightAir tempDewpointWater temp
2015-Jul-25 08:25N 35°58' E 140°43'3 3.4
2015-Jul-25 07:24N 35°55' E 140°41'0 0.0
2015-Jul-25 06:32N 35°55' E 140°41'0 0.0
2015-Jul-25 05:33N 35°55' E 140°41'0 0.0
2015-Jul-25 04:33N 35°55' E 140°41'0 0.0
2015-Jul-25 03:18N 35°55' E 140°41'0 0.0
2015-Jul-25 02:33N 35°55' E 140°41'0 0.0
2015-Jul-25 01:31N 35°55' E 140°41'3 3.1
2015-Jul-25 00:30N 35°58' E 140°42'2 1.7
2015-Jul-24 23:33N 35°60' E 140°43'0 0.0
2015-Jul-24 22:33N 35°60' E 140°43'3611.7
2015-Jul-24 19:29N 36°35' E 140°53'32 1.1
2015-Jul-23 14:22N 36°03' E 140°44'9 1.3
2015-Jul-23 07:32N 35°55' E 140°41'  
Track history (hours):
 
Tides and Currents Weather Stations Pressure Air Temp Water Temp Dewpoint Dewpoint Depression Visibility Wind Speed Wind Dir Waves Ship Positions

Chie Maru No.10

Last reported at 2015-Jul-25 08:25 UTC. Time now 2015-Jul-30 12:09 UTC.
Position N 35°58' E 140°43'.

Length 72 m; draft 4.9 m.

Type: Ship. MMSI: 431000147.

Date/timePositionNaut miles runAvg speedWind from/ knotsBaromVisibWave heightAir tempDewpointWater temp
2015-Jul-25 08:25N 35°58' E 140°43'3 3.4
2015-Jul-25 07:24N 35°55' E 140°41'0 0.0
2015-Jul-25 06:32N 35°55' E 140°41'0 0.0
2015-Jul-25 05:33N 35°55' E 140°41'0 0.0
2015-Jul-25 04:33N 35°55' E 140°41'0 0.0
2015-Jul-25 03:18N 35°55' E 140°41'0 0.0
2015-Jul-25 02:33N 35°55' E 140°41'0 0.0
2015-Jul-25 01:31N 35°55' E 140°41'3 3.1
2015-Jul-25 00:30N 35°58' E 140°42'2 1.7
2015-Jul-24 23:33N 35°60' E 140°43'0 0.0
2015-Jul-24 22:33N 35°60' E 140°43'3611.7
2015-Jul-24 19:29N 36°35' E 140°53'32 1.1
2015-Jul-23 14:22N 36°03' E 140°44'9 1.3
2015-Jul-23 07:32N 35°55' E 140°41'  

Dump ship's entire track history